Terminal Aerodrome Forecast
Issued by NWS Tampa Bay Area, FL

Home | Current Version | Previous Version | Text Only | Print | Product List | Glossary On
Versions: 1 2 3 4 5 6 7 8 9 10 11 12 13 14 15 16 17 18 19 20 21 22 23 24
000
FTUS42 KTBW 252056 AAA
TAFTPA
TAF AMD
KTPA 252056Z 2521/2618 VRB06KT P6SM SCT060 SCT150
      TEMPO 2521/2524 VRB15G25KT 3SM TSRA BKN025CB
     FM260000 10006KT P6SM VCTS SCT030CB BKN050
     FM260200 11007KT P6SM SCT040 SCT100 SCT250
     FM261500 14009KT P6SM SCT040=

USA.gov is the U.S. government's official web portal to all federal, state and local government web resources and services.